createdAt,value
2023-03-19T00:01:06.973Z,76.91
2023-03-19T00:03:38.007Z,76.29
2023-03-19T00:06:07.739Z,76.15
2023-03-19T00:08:35.936Z,76.14
2023-03-19T00:11:07.522Z,76.07
2023-03-19T00:13:36.194Z,76.15
2023-03-19T00:16:04.357Z,76.45
2023-03-19T00:18:32.729Z,76.48
2023-03-19T00:21:02.707Z,76.62
2023-03-19T00:23:31.876Z,76.59
2023-03-19T00:25:59.946Z,76.65
2023-03-19T00:28:28.236Z,76.59
2023-03-19T00:30:56.402Z,76.58
2023-03-19T00:33:25.562Z,76.65
2023-03-19T00:35:53.853Z,76.58
2023-03-19T00:38:23.666Z,76.77
2023-03-19T00:40:52.327Z,76.68
2023-03-19T00:43:20.407Z,76.74
2023-03-19T00:45:48.752Z,76.74
2023-03-19T00:48:19.410Z,76.74
2023-03-19T00:50:47.531Z,76.47
2023-03-19T00:53:15.804Z,76.52
2023-03-19T00:55:45.408Z,76.79
2023-03-19T00:58:13.636Z,76.70
2023-03-19T01:00:42.118Z,76.62
2023-03-19T01:03:10.586Z,76.66
2023-03-19T01:05:41.488Z,76.55
2023-03-19T01:08:09.994Z,76.32
2023-03-19T01:10:39.202Z,76.29
2023-03-19T01:13:08.696Z,76.15
2023-03-19T01:15:37.592Z,76.28
2023-03-19T01:18:05.727Z,76.59
2023-03-19T01:20:34.572Z,76.75
2023-03-19T01:23:03.344Z,77.13
2023-03-19T01:25:32.050Z,77.12
2023-03-19T01:28:01.012Z,77.15
2023-03-19T01:30:30.576Z,77.30
2023-03-19T01:32:59.173Z,77.42
2023-03-19T01:35:30.223Z,77.36
2023-03-19T01:37:58.410Z,77.24
2023-03-19T01:40:27.292Z,77.33
2023-03-19T01:42:57.934Z,77.31
2023-03-19T01:45:44.895Z,77.47
2023-03-19T01:48:20.966Z,77.41
2023-03-19T01:50:53.923Z,77.36
2023-03-19T01:53:25.174Z,77.45
2023-03-19T01:55:57.558Z,77.52
2023-03-19T01:58:26.776Z,77.32
2023-03-19T02:00:56.865Z,77.27
2023-03-19T02:03:25.399Z,77.39
2023-03-19T02:05:54.382Z,76.97
2023-03-19T02:08:23.947Z,77.16
2023-03-19T02:10:53.840Z,77.31
2023-03-19T02:13:22.702Z,77.17
2023-03-19T02:15:51.073Z,77.21
2023-03-19T02:18:21.195Z,76.81
2023-03-19T02:20:52.708Z,76.73
2023-03-19T02:23:27.618Z,76.82
2023-03-19T02:26:06.947Z,76.87
2023-03-19T02:28:36.692Z,76.58
2023-03-19T02:31:05.242Z,76.67
2023-03-19T02:33:33.461Z,76.64
2023-03-19T02:36:04.114Z,76.59
2023-03-19T02:38:34.629Z,76.73
2023-03-19T02:41:06.439Z,76.61
2023-03-19T02:43:36.178Z,76.56
2023-03-19T02:46:05.573Z,76.41
2023-03-19T02:48:35.018Z,76.40
2023-03-19T02:51:03.184Z,76.22
2023-03-19T02:53:31.432Z,76.10
2023-03-19T02:55:59.462Z,76.02
2023-03-19T02:58:29.275Z,75.84
2023-03-19T03:00:57.620Z,75.65
2023-03-19T03:03:26.696Z,75.54
2023-03-19T03:05:56.991Z,75.51
2023-03-19T03:08:25.055Z,75.98
2023-03-19T03:10:53.431Z,76.04
2023-03-19T03:13:21.813Z,77.13
2023-03-19T03:15:51.921Z,77.37
2023-03-19T03:18:20.647Z,76.37
2023-03-19T03:20:49.287Z,76.33
2023-03-19T03:23:17.538Z,76.49
2023-03-19T03:25:45.971Z,76.45
2023-03-19T03:28:14.218Z,77.69
2023-03-19T03:30:42.273Z,78.45
2023-03-19T03:33:11.950Z,78.96
2023-03-19T03:35:40.367Z,78.95
2023-03-19T03:38:08.396Z,78.73
2023-03-19T03:40:36.993Z,78.80
2023-03-19T03:43:05.482Z,79.02
2023-03-19T03:45:33.581Z,79.20
2023-03-19T03:48:02.133Z,79.13
2023-03-19T03:50:31.809Z,79.22
2023-03-19T03:53:00.351Z,78.96
2023-03-19T03:55:29.743Z,78.99
2023-03-19T03:57:59.436Z,78.75
2023-03-19T04:00:27.927Z,78.73
2023-03-19T04:02:56.142Z,79.01
2023-03-19T04:05:24.306Z,78.84
2023-03-19T04:07:53.796Z,78.77
2023-03-19T04:10:22.020Z,78.90
2023-03-19T04:12:50.024Z,78.83
2023-03-19T04:15:19.557Z,78.88
2023-03-19T04:17:49.157Z,78.90
2023-03-19T04:20:21.029Z,79.12
2023-03-19T04:22:50.025Z,78.80
2023-03-19T04:25:19.601Z,78.64
2023-03-19T04:27:47.705Z,78.41
2023-03-19T04:30:16.450Z,78.41
2023-03-19T04:32:45.294Z,78.14
2023-03-19T04:35:13.418Z,78.27
2023-03-19T04:37:43.767Z,78.24
2023-03-19T04:40:13.962Z,78.36
2023-03-19T04:42:44.657Z,78.97
2023-03-19T04:45:13.953Z,79.42
2023-03-19T04:47:42.676Z,80.39
2023-03-19T04:50:13.152Z,81.36
2023-03-19T04:52:41.700Z,82.32
2023-03-19T04:55:10.838Z,83.16
2023-03-19T04:57:39.521Z,84.03
2023-03-19T05:00:12.250Z,84.83
2023-03-19T05:02:40.787Z,85.24
2023-03-19T05:05:11.077Z,85.45
2023-03-19T05:07:39.271Z,85.99
2023-03-19T05:10:09.442Z,86.53
2023-03-19T05:12:37.748Z,86.72
2023-03-19T05:15:07.293Z,86.63
2023-03-19T05:17:36.853Z,86.97
2023-03-19T05:20:05.932Z,87.30
2023-03-19T05:22:34.421Z,87.45
2023-03-19T05:25:02.647Z,87.59
2023-03-19T05:27:30.836Z,87.83
2023-03-19T05:29:58.849Z,88.12
2023-03-19T05:32:28.323Z,88.29
2023-03-19T05:34:58.633Z,88.46
2023-03-19T05:37:27.525Z,88.53
2023-03-19T05:39:55.950Z,88.74
2023-03-19T05:42:24.164Z,88.97
2023-03-19T05:44:52.433Z,88.96
2023-03-19T05:47:20.697Z,88.95
2023-03-19T05:49:49.467Z,89.08
2023-03-19T05:52:18.902Z,89.40
2023-03-19T05:54:49.471Z,89.79
2023-03-19T05:57:18.415Z,90.17
2023-03-19T05:59:47.126Z,90.54
2023-03-19T06:02:15.211Z,90.77
2023-03-19T06:04:43.540Z,90.70
2023-03-19T06:07:13.399Z,90.39
2023-03-19T06:09:43.157Z,90.30
2023-03-19T06:12:11.597Z,90.39
2023-03-19T06:14:39.771Z,90.82
2023-03-19T06:17:09.294Z,90.94
2023-03-19T06:19:39.940Z,91.14
2023-03-19T06:22:08.964Z,91.48
2023-03-19T06:24:37.874Z,91.99
2023-03-19T06:27:09.897Z,92.39
2023-03-19T06:29:38.085Z,92.59
2023-03-19T06:32:07.633Z,92.92
2023-03-19T06:34:36.212Z,93.32
2023-03-19T06:37:04.499Z,93.61
2023-03-19T06:39:33.236Z,93.82
2023-03-19T06:42:04.070Z,94.02
2023-03-19T06:44:36.995Z,94.35
2023-03-19T06:47:05.531Z,94.50
2023-03-19T06:49:33.726Z,94.68
2023-03-19T06:52:02.266Z,94.76
2023-03-19T06:54:30.927Z,94.80
2023-03-19T06:57:00.139Z,94.82
2023-03-19T06:59:29.593Z,94.87
2023-03-19T07:01:59.779Z,94.96
2023-03-19T07:04:28.278Z,95.08
2023-03-19T07:06:59.676Z,95.28
2023-03-19T07:09:28.841Z,95.33
2023-03-19T07:11:59.831Z,95.39
2023-03-19T07:14:28.305Z,95.62
2023-03-19T07:16:59.686Z,95.70
2023-03-19T07:19:31.274Z,95.75
2023-03-19T07:21:59.787Z,95.81
2023-03-19T07:24:28.218Z,95.94
2023-03-19T07:26:57.404Z,96.08
2023-03-19T07:29:26.233Z,96.11
2023-03-19T07:31:55.388Z,96.20
2023-03-19T07:34:23.735Z,96.44
2023-03-19T07:36:54.383Z,96.79
2023-03-19T07:39:22.560Z,96.80
2023-03-19T07:41:50.695Z,96.76
2023-03-19T07:44:19.496Z,96.59
2023-03-19T07:46:47.734Z,96.35
2023-03-19T07:49:17.302Z,96.47
2023-03-19T07:51:47.872Z,96.43
2023-03-19T07:54:19.399Z,96.16
2023-03-19T07:56:47.886Z,95.93
2023-03-19T07:59:18.065Z,95.90
2023-03-19T08:01:46.277Z,95.84
2023-03-19T08:04:15.497Z,95.78
2023-03-19T08:06:43.701Z,95.75
2023-03-19T08:09:12.108Z,95.72
2023-03-19T08:11:41.801Z,95.50
2023-03-19T08:14:09.835Z,95.30
2023-03-19T08:16:39.392Z,95.43
2023-03-19T08:19:07.855Z,95.58
2023-03-19T08:21:37.679Z,95.84
2023-03-19T08:24:07.917Z,95.85
2023-03-19T08:26:37.830Z,95.53
2023-03-19T08:29:10.589Z,95.26
2023-03-19T08:31:39.003Z,94.94
2023-03-19T08:34:10.387Z,94.85
2023-03-19T08:36:38.449Z,94.92
2023-03-19T08:39:06.605Z,94.74
2023-03-19T08:41:34.812Z,94.76
2023-03-19T08:44:02.844Z,94.82
2023-03-19T08:46:33.526Z,94.89
2023-03-19T08:49:04.207Z,94.84
2023-03-19T08:51:32.690Z,94.74
2023-03-19T08:54:01.141Z,94.67
2023-03-19T08:56:29.599Z,94.68
2023-03-19T08:59:05.746Z,94.72
2023-03-19T09:01:35.348Z,94.55
2023-03-19T09:04:04.116Z,94.42
2023-03-19T09:06:34.052Z,94.54
2023-03-19T09:09:03.265Z,94.45
2023-03-19T09:11:31.577Z,93.93
2023-03-19T09:13:59.548Z,94.05
2023-03-19T09:16:28.039Z,94.18
2023-03-19T09:18:59.385Z,93.93
2023-03-19T09:21:27.758Z,93.57
2023-03-19T09:23:56.385Z,92.80
2023-03-19T09:26:24.762Z,91.95
2023-03-19T09:28:52.935Z,91.62
2023-03-19T09:31:22.160Z,91.21
2023-03-19T09:33:50.305Z,90.76
2023-03-19T09:36:20.679Z,90.92
2023-03-19T09:38:52.102Z,90.88
2023-03-19T09:41:28.616Z,90.41
2023-03-19T09:44:02.748Z,90.66
2023-03-19T09:46:37.669Z,90.27
2023-03-19T09:49:14.653Z,90.10
2023-03-19T09:51:46.527Z,90.16
2023-03-19T09:54:27.373Z,90.57
2023-03-19T09:56:56.216Z,90.75
2023-03-19T09:59:27.094Z,90.60
2023-03-19T10:02:00.613Z,89.48
2023-03-19T10:04:41.985Z,88.77
2023-03-19T10:07:20.900Z,88.42
2023-03-19T10:09:56.756Z,88.42
2023-03-19T10:12:35.942Z,88.06
2023-03-19T10:15:14.318Z,87.50
2023-03-19T10:17:46.343Z,87.30
2023-03-19T10:20:23.067Z,87.42
2023-03-19T10:23:00.035Z,87.50
2023-03-19T10:25:41.717Z,87.26
2023-03-19T10:28:16.094Z,87.12
2023-03-19T10:30:47.848Z,87.21
2023-03-19T10:33:20.898Z,86.75
2023-03-19T10:35:51.128Z,86.55
2023-03-19T10:38:25.470Z,86.63
2023-03-19T10:41:05.702Z,85.88
2023-03-19T10:43:35.169Z,85.63
2023-03-19T10:46:03.841Z,85.67
2023-03-19T10:48:33.702Z,84.99
2023-03-19T10:51:05.602Z,84.57
2023-03-19T10:53:37.171Z,84.35
2023-03-19T10:56:07.206Z,84.62
2023-03-19T10:58:36.955Z,84.85
2023-03-19T11:01:08.485Z,84.34
2023-03-19T11:03:38.095Z,84.18
2023-03-19T11:06:10.781Z,84.25
2023-03-19T11:08:41.093Z,83.71
2023-03-19T11:11:27.113Z,83.30
2023-03-19T11:13:55.589Z,83.42
2023-03-19T11:16:23.833Z,83.27
2023-03-19T11:18:52.497Z,82.77
2023-03-19T11:21:25.655Z,82.68
2023-03-19T11:24:02.864Z,82.43
2023-03-19T11:26:31.360Z,82.04
2023-03-19T11:29:06.262Z,82.18
2023-03-19T11:31:39.108Z,81.85
2023-03-19T11:34:18.465Z,81.62
2023-03-19T11:36:52.483Z,81.89
2023-03-19T11:39:30.496Z,81.54
2023-03-19T11:42:11.595Z,81.36
2023-03-19T11:44:47.014Z,81.41
2023-03-19T11:47:27.363Z,81.28
2023-03-19T11:50:05.855Z,81.84
2023-03-19T11:52:37.041Z,81.22
2023-03-19T11:55:21.348Z,80.70
2023-03-19T11:58:01.555Z,80.67
2023-03-19T12:00:32.806Z,80.14
2023-03-19T12:03:17.697Z,80.51
2023-03-19T12:05:54.504Z,79.94
2023-03-19T12:08:31.678Z,79.88
2023-03-19T12:11:11.252Z,79.68
2023-03-19T12:13:50.097Z,79.05
2023-03-19T12:16:24.396Z,78.37
2023-03-19T12:19:11.723Z,78.57
2023-03-19T12:21:50.797Z,78.58
2023-03-19T12:24:29.273Z,78.00
2023-03-19T12:27:04.597Z,76.61
2023-03-19T12:29:40.847Z,77.12
2023-03-19T12:32:18.317Z,76.24
2023-03-19T12:34:51.429Z,76.31
2023-03-19T12:37:23.570Z,76.38
2023-03-19T12:40:00.754Z,75.70
2023-03-19T12:42:38.094Z,75.69
2023-03-19T12:45:13.061Z,76.01
2023-03-19T12:47:41.891Z,76.31
2023-03-19T12:50:12.604Z,75.95
2023-03-19T12:52:42.066Z,76.17
2023-03-19T12:55:25.897Z,76.17
2023-03-19T12:57:58.855Z,76.28
2023-03-19T13:00:31.517Z,75.21
2023-03-19T13:03:18.666Z,76.09
2023-03-19T13:05:48.602Z,75.05
2023-03-19T13:08:21.102Z,74.79
2023-03-19T13:10:49.197Z,75.03
2023-03-19T13:13:31.251Z,74.36
2023-03-19T13:16:02.093Z,74.38
2023-03-19T13:18:39.560Z,74.28
2023-03-19T13:21:19.570Z,74.46
2023-03-19T13:23:49.703Z,74.29
2023-03-19T13:26:19.164Z,74.52
2023-03-19T13:29:05.083Z,73.73
2023-03-19T13:31:37.202Z,74.48
2023-03-19T13:34:07.616Z,73.81
2023-03-19T13:36:41.600Z,73.74
2023-03-19T13:39:14.975Z,73.62
2023-03-19T13:41:53.474Z,73.21
2023-03-19T13:44:30.740Z,73.59
2023-03-19T13:47:02.159Z,72.82
2023-03-19T13:49:35.352Z,72.32
2023-03-19T13:52:58.038Z,72.24
2023-03-19T13:55:34.977Z,71.49
2023-03-19T13:58:38.370Z,71.51
2023-03-19T14:01:11.657Z,73.86
2023-03-19T14:03:43.648Z,74.75
2023-03-19T14:06:28.189Z,72.62
2023-03-19T14:08:56.753Z,71.76
2023-03-19T14:11:31.105Z,72.59
2023-03-19T14:14:02.637Z,71.11
2023-03-19T14:16:35.574Z,70.82
2023-03-19T14:19:06.042Z,71.11
2023-03-19T14:21:46.784Z,71.26
2023-03-19T14:24:55.366Z,70.63
2023-03-19T14:27:25.662Z,70.05
2023-03-19T14:29:55.682Z,69.93
2023-03-19T14:32:27.219Z,71.82
2023-03-19T14:34:56.681Z,70.05
2023-03-19T14:37:26.187Z,70.72
2023-03-19T14:40:00.794Z,69.54
2023-03-19T14:42:35.189Z,70.03
2023-03-19T14:45:29.911Z,69.65
2023-03-19T14:48:27.178Z,69.47
2023-03-19T14:51:07.044Z,69.38
2023-03-19T14:53:40.613Z,69.07
2023-03-19T14:56:15.655Z,69.15
2023-03-19T14:58:53.728Z,69.27
2023-03-19T15:01:22.889Z,68.85
2023-03-19T15:03:55.175Z,68.72
2023-03-19T15:06:23.679Z,68.82
2023-03-19T15:08:52.225Z,69.01
2023-03-19T15:11:33.302Z,69.40
2023-03-19T15:14:23.841Z,68.81
2023-03-19T15:17:02.283Z,68.19
2023-03-19T15:19:34.867Z,67.80
2023-03-19T15:22:11.961Z,67.35
2023-03-19T15:24:41.252Z,66.85
2023-03-19T15:27:20.408Z,67.06
2023-03-19T15:29:51.691Z,66.83
2023-03-19T15:32:52.165Z,67.24
2023-03-19T15:35:25.976Z,67.48
2023-03-19T15:37:56.811Z,67.20
2023-03-19T15:40:27.232Z,67.06
2023-03-19T15:42:56.676Z,67.81
2023-03-19T15:45:26.885Z,68.61
2023-03-19T15:47:59.063Z,67.94
2023-03-19T15:53:23.248Z,68.47
2023-03-19T15:55:52.842Z,68.69
2023-03-19T15:58:27.348Z,68.73
2023-03-19T16:01:01.037Z,68.73
2023-03-19T16:03:34.968Z,68.65
2023-03-19T16:06:05.282Z,69.10
2023-03-19T16:08:34.081Z,69.48
2023-03-19T16:11:19.517Z,69.29
2023-03-19T16:13:59.584Z,69.28
2023-03-19T16:16:32.690Z,69.76
2023-03-19T16:19:00.863Z,70.25
2023-03-19T16:21:37.042Z,69.91
2023-03-19T16:24:13.011Z,69.36
2023-03-19T16:26:43.118Z,69.15
2023-03-19T16:29:19.970Z,68.29
2023-03-19T16:31:52.932Z,68.96
2023-03-19T16:34:32.440Z,68.29
2023-03-19T16:37:01.408Z,68.33
2023-03-19T16:39:37.128Z,69.20
2023-03-19T16:42:30.051Z,69.03
2023-03-19T16:44:58.342Z,69.83
2023-03-19T16:47:30.958Z,69.14
2023-03-19T16:49:59.514Z,69.33
2023-03-19T16:52:29.367Z,69.32
2023-03-19T16:54:58.029Z,69.45
2023-03-19T16:57:28.241Z,70.48
2023-03-19T16:59:58.040Z,69.86
2023-03-19T17:02:29.694Z,70.03
2023-03-19T17:04:58.965Z,71.04
2023-03-19T17:07:37.248Z,70.85
2023-03-19T17:10:06.328Z,70.92
2023-03-19T17:12:34.610Z,71.61
2023-03-19T17:15:04.653Z,72.61
2023-03-19T17:17:35.570Z,72.23
2023-03-19T17:20:06.918Z,72.24
2023-03-19T17:22:36.101Z,72.11
2023-03-19T17:25:07.367Z,71.73
2023-03-19T17:27:36.115Z,72.32
2023-03-19T17:30:07.078Z,72.59
2023-03-19T17:32:36.595Z,71.93
2023-03-19T17:35:05.357Z,72.02
2023-03-19T17:37:33.554Z,71.66
2023-03-19T17:40:01.623Z,71.74
2023-03-19T17:42:32.355Z,71.90
2023-03-19T17:45:01.221Z,72.20
2023-03-19T17:47:29.184Z,72.35
2023-03-19T17:49:58.777Z,72.13
2023-03-19T17:52:26.947Z,72.80
2023-03-19T17:54:56.199Z,72.29
2023-03-19T17:57:26.183Z,72.50
2023-03-19T17:59:54.200Z,72.91
2023-03-19T18:02:26.318Z,73.67
2023-03-19T18:04:54.737Z,73.78
2023-03-19T18:07:25.492Z,74.19
2023-03-19T18:09:53.817Z,74.66
2023-03-19T18:12:22.650Z,74.96
2023-03-19T18:14:51.323Z,75.38
2023-03-19T18:17:20.563Z,75.71
2023-03-19T18:19:50.946Z,76.10
2023-03-19T18:22:21.190Z,76.39
2023-03-19T18:24:50.646Z,76.49
2023-03-19T18:27:19.100Z,76.55
2023-03-19T18:29:47.108Z,76.67
2023-03-19T18:32:17.322Z,76.87
2023-03-19T18:34:45.464Z,77.00
2023-03-19T18:37:16.715Z,77.09
2023-03-19T18:39:45.969Z,77.22
2023-03-19T18:42:15.727Z,77.23
2023-03-19T18:44:43.976Z,77.22
2023-03-19T18:47:15.733Z,77.15
2023-03-19T18:49:47.404Z,76.88
2023-03-19T18:52:19.446Z,76.87
2023-03-19T18:54:50.017Z,76.67
2023-03-19T18:57:21.455Z,76.62
2023-03-19T18:59:51.542Z,76.57
2023-03-19T19:02:25.468Z,76.68
2023-03-19T19:04:53.834Z,76.79
2023-03-19T19:07:23.097Z,77.20
2023-03-19T19:09:52.895Z,77.27
2023-03-19T19:12:23.426Z,77.11
2023-03-19T19:14:52.062Z,77.16
2023-03-19T19:17:24.271Z,77.28
2023-03-19T19:19:52.651Z,77.22
2023-03-19T19:22:21.169Z,77.42
2023-03-19T19:24:49.364Z,77.56
2023-03-19T19:27:18.568Z,78.03
2023-03-19T19:29:49.841Z,78.48
2023-03-19T19:32:25.200Z,78.76
2023-03-19T19:34:55.806Z,79.17
2023-03-19T19:37:25.805Z,79.66
2023-03-19T19:39:53.930Z,80.61
2023-03-19T19:42:23.891Z,81.01
2023-03-19T19:44:58.920Z,80.78
2023-03-19T19:47:28.306Z,80.61
2023-03-19T19:49:58.882Z,80.57
2023-03-19T19:52:27.507Z,80.50
2023-03-19T19:54:55.719Z,80.61
2023-03-19T19:57:25.492Z,80.44
2023-03-19T19:59:59.448Z,80.53
2023-03-19T20:02:29.674Z,80.34
2023-03-19T20:04:58.369Z,80.34
2023-03-19T20:07:27.224Z,80.19
2023-03-19T20:09:56.636Z,79.88
2023-03-19T20:12:27.789Z,79.76
2023-03-19T20:14:56.438Z,79.44
2023-03-19T20:17:31.499Z,79.24
2023-03-19T20:20:01.076Z,79.48
2023-03-19T20:22:29.946Z,79.95
2023-03-19T20:24:58.677Z,80.02
2023-03-19T20:27:39.213Z,79.96
2023-03-19T20:30:11.778Z,80.46
2023-03-19T20:32:42.095Z,80.44
2023-03-19T20:35:18.400Z,80.68
2023-03-19T20:37:48.224Z,80.98
2023-03-19T20:40:17.430Z,81.29
2023-03-19T20:42:48.679Z,81.29
2023-03-19T20:45:19.834Z,81.35
2023-03-19T20:47:53.006Z,81.19
2023-03-19T20:50:29.052Z,81.38
2023-03-19T20:53:01.171Z,81.38
2023-03-19T20:55:32.074Z,81.10
2023-03-19T20:58:01.828Z,80.91
2023-03-19T21:00:32.144Z,80.59
2023-03-19T21:03:03.296Z,80.50
2023-03-19T21:05:36.483Z,80.74
2023-03-19T21:08:09.396Z,81.05
2023-03-19T21:10:42.357Z,81.19
2023-03-19T21:13:14.473Z,81.32
2023-03-19T21:15:44.447Z,81.42
2023-03-19T21:18:14.938Z,81.82
2023-03-19T21:20:46.162Z,81.86
2023-03-19T21:23:17.619Z,82.34
2023-03-19T21:25:46.321Z,82.33
2023-03-19T21:28:18.961Z,82.63
2023-03-19T21:30:47.999Z,82.58
2023-03-19T21:33:29.327Z,82.93
2023-03-19T21:35:58.307Z,83.01
2023-03-19T21:38:29.552Z,83.05
2023-03-19T21:40:59.528Z,83.19
2023-03-19T21:43:37.236Z,83.13
2023-03-19T21:46:22.881Z,83.31
2023-03-19T21:48:55.484Z,83.41
2023-03-19T21:51:25.340Z,83.45
2023-03-19T21:53:54.118Z,83.22
2023-03-19T21:56:24.276Z,83.01
2023-03-19T21:58:53.531Z,83.14
2023-03-19T22:01:23.996Z,83.17
2023-03-19T22:03:54.705Z,83.55
2023-03-19T22:06:24.350Z,83.70
2023-03-19T22:08:53.914Z,83.75
2023-03-19T22:11:26.057Z,83.49
2023-03-19T22:13:55.460Z,83.48
2023-03-19T22:16:25.403Z,83.48
2023-03-19T22:18:55.620Z,83.53
2023-03-19T22:21:24.639Z,83.63
2023-03-19T22:23:53.273Z,83.58
2023-03-19T22:26:31.655Z,83.61
2023-03-19T22:29:00.824Z,83.69
2023-03-19T22:31:29.393Z,83.77
2023-03-19T22:33:59.433Z,83.67
2023-03-19T22:36:27.754Z,83.90
2023-03-19T22:38:55.978Z,83.99
2023-03-19T22:41:28.210Z,84.11
2023-03-19T22:43:58.102Z,84.34
2023-03-19T22:46:28.072Z,84.24
2023-03-19T22:48:56.690Z,84.16
2023-03-19T22:51:27.755Z,84.43
2023-03-19T22:53:55.905Z,84.47
2023-03-19T22:56:24.302Z,84.31
2023-03-19T22:58:52.720Z,84.37
2023-03-19T23:01:31.547Z,84.31
2023-03-19T23:04:16.967Z,84.15
2023-03-19T23:06:47.098Z,84.17
2023-03-19T23:09:18.776Z,84.18
2023-03-19T23:11:50.254Z,84.24
2023-03-19T23:14:28.894Z,84.21
2023-03-19T23:17:02.101Z,84.37
2023-03-19T23:19:32.331Z,84.64
2023-03-19T23:22:07.138Z,84.94
2023-03-19T23:24:35.476Z,85.13
2023-03-19T23:27:04.198Z,85.47
2023-03-19T23:29:35.516Z,85.74
2023-03-19T23:32:05.130Z,85.97
2023-03-19T23:34:39.667Z,86.21
2023-03-19T23:37:17.088Z,86.50
2023-03-19T23:39:47.871Z,86.75
2023-03-19T23:42:26.549Z,87.03
2023-03-19T23:44:57.803Z,87.25
2023-03-19T23:47:26.259Z,87.49
2023-03-19T23:49:55.683Z,87.71
2023-03-19T23:52:25.840Z,87.97
2023-03-19T23:54:57.069Z,88.28
2023-03-19T23:57:27.956Z,88.58
2023-03-19T23:59:56.204Z,88.68
